createdAt,value
2018-06-24T00:00:15.580Z,18.10
2018-06-24T00:02:43.289Z,18.10
2018-06-24T00:05:10.676Z,18.00
2018-06-24T00:07:38.072Z,18.00
2018-06-24T00:10:05.584Z,18.00
2018-06-24T00:12:32.979Z,18.00
2018-06-24T00:15:00.360Z,17.90
2018-06-24T00:17:27.774Z,17.90
2018-06-24T00:19:55.155Z,17.90
2018-06-24T00:22:22.568Z,18.00
2018-06-24T00:24:49.950Z,17.80
2018-06-24T00:29:44.725Z,17.70
2018-06-24T00:32:12.179Z,17.70
2018-06-24T00:34:39.555Z,17.60
2018-06-24T00:37:07.012Z,17.60
2018-06-24T00:39:34.383Z,17.50
2018-06-24T00:42:01.791Z,17.50
2018-06-24T00:44:29.195Z,17.50
2018-06-24T00:49:23.975Z,17.40
2018-06-24T00:51:51.431Z,17.40
2018-06-24T00:54:18.825Z,17.40
2018-06-24T00:56:46.215Z,17.40
2018-06-24T00:59:25.318Z,17.40
2018-06-24T01:01:52.715Z,17.30
2018-06-24T01:04:20.144Z,17.30
2018-06-24T01:06:47.547Z,17.30
2018-06-24T01:09:14.947Z,17.30
2018-06-24T01:11:42.331Z,17.20
2018-06-24T01:14:09.715Z,17.20
2018-06-24T01:16:37.411Z,17.20
2018-06-24T01:19:04.851Z,17.20
2018-06-24T01:21:32.296Z,17.20
2018-06-24T01:23:59.679Z,17.20
2018-06-24T01:26:27.091Z,17.20
2018-06-24T01:28:54.490Z,17.20
2018-06-24T01:31:21.919Z,17.10
2018-06-24T01:36:16.755Z,17.10
2018-06-24T01:38:44.146Z,17.10
2018-06-24T01:41:11.531Z,17.10
2018-06-24T01:43:38.917Z,17.10
2018-06-24T01:46:06.365Z,17.10
2018-06-24T01:48:33.781Z,17.00
2018-06-24T01:51:01.147Z,17.00
2018-06-24T01:53:28.578Z,17.00
2018-06-24T01:55:55.985Z,17.00
2018-06-24T01:58:23.371Z,17.00
2018-06-24T02:00:50.795Z,17.00
2018-06-24T02:03:18.197Z,16.90
2018-06-24T02:05:45.607Z,16.90
2018-06-24T02:08:13.042Z,16.90
2018-06-24T02:10:40.463Z,16.80
2018-06-24T02:13:07.886Z,16.80
2018-06-24T02:15:35.342Z,16.80
2018-06-24T02:18:02.759Z,16.80
2018-06-24T02:20:30.155Z,16.80
2018-06-24T02:22:57.559Z,16.80
2018-06-24T02:25:24.967Z,16.70
2018-06-24T02:27:52.367Z,16.70
2018-06-24T02:30:19.811Z,16.70
2018-06-24T02:32:47.199Z,16.60
2018-06-24T02:35:14.588Z,16.60
2018-06-24T02:37:41.987Z,16.60
2018-06-24T02:40:09.401Z,16.50
2018-06-24T02:42:36.803Z,16.40
2018-06-24T02:45:04.375Z,16.30
2018-06-24T02:47:31.825Z,16.30
2018-06-24T02:49:59.225Z,16.20
2018-06-24T02:52:26.697Z,16.20
2018-06-24T02:54:54.104Z,16.10
2018-06-24T02:57:21.531Z,16.10
2018-06-24T02:59:48.922Z,16.10
2018-06-24T03:02:16.323Z,16.10
2018-06-24T03:04:43.735Z,16.00
2018-06-24T03:07:11.139Z,16.00
2018-06-24T03:09:38.569Z,16.00
2018-06-24T03:12:06.016Z,15.80
2018-06-24T03:17:00.807Z,15.90
2018-06-24T03:19:28.245Z,15.90
2018-06-24T03:21:55.631Z,15.80
2018-06-24T03:24:23.007Z,15.80
2018-06-24T03:26:50.543Z,15.70
2018-06-24T03:29:17.992Z,15.70
2018-06-24T03:31:45.372Z,15.70
2018-06-24T03:34:12.791Z,15.60
2018-06-24T03:36:40.273Z,15.50
2018-06-24T03:39:09.440Z,15.40
2018-06-24T03:41:36.900Z,15.50
2018-06-24T03:44:04.339Z,15.40
2018-06-24T03:46:31.751Z,15.40
2018-06-24T03:48:59.154Z,15.40
2018-06-24T03:51:26.542Z,15.30
2018-06-24T03:53:53.955Z,15.30
2018-06-24T03:56:21.387Z,15.30
2018-06-24T03:58:48.812Z,15.30
2018-06-24T04:01:16.199Z,15.30
2018-06-24T04:03:43.652Z,15.20
2018-06-24T04:06:11.031Z,15.20
2018-06-24T04:08:38.456Z,15.20
2018-06-24T04:11:05.934Z,15.40
2018-06-24T04:13:33.316Z,15.30
2018-06-24T04:16:03.574Z,15.30
2018-06-24T04:18:35.379Z,15.30
2018-06-24T04:21:02.836Z,15.40
2018-06-24T04:23:30.224Z,15.40
2018-06-24T04:25:57.967Z,15.50
2018-06-24T04:28:25.346Z,15.50
2018-06-24T04:30:52.751Z,15.60
2018-06-24T04:33:20.175Z,15.60
2018-06-24T04:35:47.571Z,15.70
2018-06-24T04:38:14.947Z,15.80
2018-06-24T04:40:42.414Z,15.80
2018-06-24T04:43:09.820Z,15.80
2018-06-24T04:45:37.206Z,15.90
2018-06-24T04:48:05.103Z,16.00
2018-06-24T04:50:32.536Z,16.00
2018-06-24T04:52:59.961Z,16.10
2018-06-24T04:55:27.383Z,16.20
2018-06-24T04:57:54.798Z,16.30
2018-06-24T05:00:22.244Z,16.30
2018-06-24T05:02:49.656Z,16.40
2018-06-24T05:05:17.034Z,16.50
2018-06-24T05:07:44.412Z,16.50
2018-06-24T05:10:11.818Z,16.60
2018-06-24T05:12:39.219Z,16.60
2018-06-24T05:15:06.630Z,16.70
2018-06-24T05:17:34.048Z,16.70
2018-06-24T05:20:01.467Z,16.70
2018-06-24T05:22:28.853Z,16.70
2018-06-24T05:24:56.243Z,16.80
2018-06-24T05:27:23.649Z,16.80
2018-06-24T05:29:51.088Z,16.90
2018-06-24T05:32:18.516Z,16.90
2018-06-24T05:34:45.966Z,17.00
2018-06-24T05:37:13.375Z,17.00
2018-06-24T05:39:40.787Z,17.00
2018-06-24T05:42:08.175Z,17.00
2018-06-24T05:44:35.579Z,17.00
2018-06-24T05:47:02.998Z,17.00
2018-06-24T05:49:30.390Z,17.10
2018-06-24T05:51:57.780Z,17.10
2018-06-24T05:54:26.003Z,17.20
2018-06-24T05:56:53.432Z,17.20
2018-06-24T05:59:20.835Z,17.30
2018-06-24T06:01:48.246Z,17.30
2018-06-24T06:04:15.633Z,17.40
2018-06-24T06:06:43.038Z,17.50
2018-06-24T06:09:11.648Z,17.60
2018-06-24T06:11:39.096Z,17.70
2018-06-24T06:14:06.516Z,17.80
2018-06-24T06:16:34.135Z,17.90
2018-06-24T06:19:02.010Z,18.00
2018-06-24T06:21:29.407Z,18.00
2018-06-24T06:23:56.799Z,18.10
2018-06-24T06:26:24.189Z,18.10
2018-06-24T06:28:51.555Z,18.10
2018-06-24T06:31:19.003Z,18.10
2018-06-24T06:33:46.455Z,18.10
2018-06-24T06:36:13.883Z,18.10
2018-06-24T06:38:41.371Z,18.10
2018-06-24T06:41:08.870Z,18.10
2018-06-24T06:43:36.324Z,18.20
2018-06-24T06:46:07.855Z,18.20
2018-06-24T06:48:35.279Z,18.30
2018-06-24T06:51:02.793Z,18.30
2018-06-24T06:53:30.158Z,18.40
2018-06-24T06:55:57.546Z,18.50
2018-06-24T06:58:25.763Z,18.50
2018-06-24T07:00:53.204Z,18.50
2018-06-24T07:03:20.620Z,18.60
2018-06-24T07:05:48.089Z,18.60
2018-06-24T07:08:15.544Z,18.60
2018-06-24T07:10:42.998Z,18.60
2018-06-24T07:13:10.450Z,18.70
2018-06-24T07:15:37.861Z,18.70
2018-06-24T07:18:05.283Z,18.60
2018-06-24T07:20:32.707Z,18.60
2018-06-24T07:23:00.162Z,18.60
2018-06-24T07:25:27.850Z,18.60
2018-06-24T07:27:55.307Z,18.70
2018-06-24T07:30:22.727Z,18.70
2018-06-24T07:32:50.147Z,18.70
2018-06-24T07:35:17.592Z,18.80
2018-06-24T07:37:45.023Z,18.80
2018-06-24T07:40:12.432Z,18.80
2018-06-24T07:42:39.825Z,18.80
2018-06-24T07:45:07.267Z,18.90
2018-06-24T07:47:34.667Z,19.00
2018-06-24T07:50:02.059Z,19.10
2018-06-24T07:52:29.495Z,19.10
2018-06-24T07:54:56.908Z,19.20
2018-06-24T07:57:24.316Z,19.20
2018-06-24T07:59:51.753Z,19.30
2018-06-24T08:02:19.196Z,19.40
2018-06-24T08:04:46.607Z,19.50
2018-06-24T08:07:14.075Z,19.60
2018-06-24T08:09:41.492Z,19.70
2018-06-24T08:12:08.954Z,19.90
2018-06-24T08:14:36.370Z,19.90
2018-06-24T08:17:03.839Z,20.00
2018-06-24T08:19:31.249Z,20.00
2018-06-24T08:21:58.829Z,20.00
2018-06-24T08:24:26.258Z,20.00
2018-06-24T08:26:53.735Z,20.10
2018-06-24T08:29:21.177Z,20.10
2018-06-24T08:31:48.599Z,20.10
2018-06-24T08:36:43.449Z,20.20
2018-06-24T08:39:11.224Z,20.30
2018-06-24T08:41:38.667Z,20.30
2018-06-24T08:44:06.871Z,20.40
2018-06-24T08:46:34.309Z,20.50
2018-06-24T08:49:01.688Z,20.50
2018-06-24T08:51:29.096Z,20.50
2018-06-24T08:53:56.511Z,20.50
2018-06-24T08:56:23.924Z,20.50
2018-06-24T08:58:51.352Z,20.60
2018-06-24T09:01:18.784Z,20.60
2018-06-24T09:03:46.172Z,20.60
2018-06-24T09:06:13.603Z,20.60
2018-06-24T09:08:41.040Z,20.70
2018-06-24T09:11:08.529Z,20.70
2018-06-24T09:13:35.983Z,20.80
2018-06-24T09:16:03.612Z,20.90
2018-06-24T09:18:31.015Z,21.00
2018-06-24T09:20:58.442Z,21.20
2018-06-24T09:23:25.848Z,21.30
2018-06-24T09:25:53.244Z,21.40
2018-06-24T09:28:20.651Z,21.50
2018-06-24T09:33:15.529Z,21.50
2018-06-24T09:35:42.959Z,21.60
2018-06-24T09:38:10.329Z,21.70
2018-06-24T09:40:37.744Z,21.80
2018-06-24T09:43:05.264Z,21.90
2018-06-24T09:45:32.680Z,22.00
2018-06-24T09:48:00.093Z,22.10
2018-06-24T09:50:27.543Z,22.20
2018-06-24T09:52:55.011Z,22.20
2018-06-24T09:55:22.404Z,22.20
2018-06-24T09:57:49.786Z,22.30
2018-06-24T10:00:22.232Z,22.30
2018-06-24T10:02:50.344Z,22.40
2018-06-24T10:05:17.784Z,22.40
2018-06-24T10:07:45.416Z,22.40
2018-06-24T10:10:12.895Z,22.40
2018-06-24T10:12:40.344Z,22.50
2018-06-24T10:15:08.114Z,22.60
2018-06-24T10:17:35.643Z,22.70
2018-06-24T10:20:03.351Z,22.80
2018-06-24T10:25:07.159Z,22.90
2018-06-24T10:27:34.555Z,23.00
2018-06-24T10:30:01.940Z,23.00
2018-06-24T10:32:29.388Z,22.90
2018-06-24T10:34:56.767Z,22.90
2018-06-24T10:37:24.161Z,22.90
2018-06-24T10:39:51.600Z,22.90
2018-06-24T10:42:19.011Z,22.90
2018-06-24T10:44:46.400Z,22.90
2018-06-24T10:47:13.847Z,22.90
2018-06-24T10:49:41.288Z,22.90
2018-06-24T10:52:09.621Z,23.00
2018-06-24T10:57:04.488Z,23.20
2018-06-24T10:59:31.914Z,23.20
2018-06-24T11:01:59.369Z,23.20
2018-06-24T11:04:26.739Z,23.20
2018-06-24T11:06:54.208Z,23.20
2018-06-24T11:09:21.612Z,23.10
2018-06-24T11:11:49.030Z,23.10
2018-06-24T11:14:16.485Z,23.00
2018-06-24T11:16:43.935Z,23.00
2018-06-24T11:19:11.350Z,23.00
2018-06-24T11:21:38.765Z,23.00
2018-06-24T11:24:06.244Z,22.90
2018-06-24T11:26:33.812Z,22.80
2018-06-24T11:29:01.546Z,22.80
2018-06-24T11:31:29.083Z,22.70
2018-06-24T11:33:56.464Z,22.80
2018-06-24T11:36:23.875Z,22.70
2018-06-24T11:38:51.285Z,22.80
2018-06-24T11:41:18.725Z,22.80
2018-06-24T11:43:46.184Z,22.90
2018-06-24T11:46:13.608Z,22.90
2018-06-24T11:48:41.002Z,23.00
2018-06-24T11:51:08.450Z,23.10
2018-06-24T11:53:35.924Z,23.20
2018-06-24T11:56:03.347Z,23.20
2018-06-24T11:58:30.754Z,23.20
2018-06-24T12:00:58.172Z,23.30
2018-06-24T12:03:25.579Z,23.40
2018-06-24T12:05:52.977Z,23.40
2018-06-24T12:08:20.415Z,23.50
2018-06-24T12:10:47.830Z,23.50
2018-06-24T12:13:15.316Z,23.60
2018-06-24T12:15:42.910Z,23.60
2018-06-24T12:18:10.376Z,23.60
2018-06-24T12:20:37.771Z,23.60
2018-06-24T12:23:05.240Z,23.60
2018-06-24T12:25:32.670Z,23.60
2018-06-24T12:28:00.091Z,23.60
2018-06-24T12:30:27.491Z,23.60
2018-06-24T12:32:54.877Z,23.50
2018-06-24T12:35:22.312Z,23.50
2018-06-24T12:37:49.776Z,23.50
2018-06-24T12:40:21.859Z,23.50
2018-06-24T12:42:49.299Z,23.50
2018-06-24T12:45:16.732Z,23.50
2018-06-24T12:47:44.336Z,23.60
2018-06-24T12:50:11.773Z,23.70
2018-06-24T12:52:39.206Z,23.70
2018-06-24T12:55:06.864Z,23.80
2018-06-24T12:57:34.275Z,23.90
2018-06-24T13:00:02.124Z,24.00
2018-06-24T13:02:29.175Z,24.00
2018-06-24T13:04:56.647Z,24.00
2018-06-24T13:07:24.057Z,23.90
2018-06-24T13:09:51.453Z,23.80
2018-06-24T13:12:18.892Z,23.70
2018-06-24T13:14:46.308Z,23.60
2018-06-24T13:17:13.811Z,23.50
2018-06-24T13:19:41.240Z,23.40
2018-06-24T13:22:08.749Z,23.30
2018-06-24T13:24:36.147Z,23.30
2018-06-24T13:27:03.604Z,23.20
2018-06-24T13:29:31.018Z,23.20
2018-06-24T13:31:58.495Z,23.30
2018-06-24T13:34:25.871Z,23.30
2018-06-24T13:36:53.277Z,23.40
2018-06-24T13:39:20.697Z,23.40
2018-06-24T13:41:48.223Z,23.50
2018-06-24T13:44:15.661Z,23.60
2018-06-24T13:46:43.146Z,23.70
2018-06-24T13:49:10.570Z,23.70
2018-06-24T13:51:37.996Z,23.70
2018-06-24T13:54:05.452Z,23.70
2018-06-24T13:56:32.839Z,23.60
2018-06-24T13:59:00.240Z,23.50
2018-06-24T14:01:27.653Z,23.40
2018-06-24T14:03:55.328Z,23.20
2018-06-24T14:06:22.723Z,23.10
2018-06-24T14:08:50.134Z,23.00
2018-06-24T14:11:17.546Z,22.90
2018-06-24T14:13:44.987Z,22.80
2018-06-24T14:16:12.400Z,22.70
2018-06-24T14:18:39.823Z,22.60
2018-06-24T14:21:07.259Z,22.50
2018-06-24T14:23:34.871Z,22.50
2018-06-24T14:26:02.136Z,22.40
2018-06-24T14:28:29.577Z,22.30
2018-06-24T14:30:56.957Z,22.30
2018-06-24T14:33:24.336Z,22.30
2018-06-24T14:35:51.751Z,22.20
2018-06-24T14:38:19.199Z,22.20
2018-06-24T14:40:46.616Z,22.10
2018-06-24T14:43:14.029Z,22.10
2018-06-24T14:45:41.481Z,22.00
2018-06-24T14:48:08.872Z,22.00
2018-06-24T14:50:36.272Z,21.90
2018-06-24T14:53:03.698Z,21.80
2018-06-24T14:55:31.111Z,21.80
2018-06-24T14:57:58.539Z,21.80
2018-06-24T15:00:25.956Z,21.70
2018-06-24T15:02:53.395Z,21.80
2018-06-24T15:05:20.760Z,21.80
2018-06-24T15:07:48.180Z,21.80
2018-06-24T15:10:15.635Z,21.90
2018-06-24T15:12:43.065Z,21.90
2018-06-24T15:15:10.498Z,22.00
2018-06-24T15:17:39.737Z,22.20
2018-06-24T15:20:07.397Z,22.20
2018-06-24T15:22:34.757Z,22.30
2018-06-24T15:25:02.197Z,22.40
2018-06-24T15:27:29.672Z,22.40
2018-06-24T15:29:57.124Z,22.50
2018-06-24T15:32:24.560Z,22.50
2018-06-24T15:34:51.970Z,22.50
2018-06-24T15:37:19.387Z,22.50
2018-06-24T15:39:46.817Z,22.40
2018-06-24T15:42:14.793Z,22.40
2018-06-24T15:44:42.345Z,22.40
2018-06-24T15:47:09.749Z,22.40
2018-06-24T15:49:37.147Z,22.30
2018-06-24T15:52:04.664Z,22.30
2018-06-24T15:54:32.083Z,22.20
2018-06-24T15:56:59.497Z,22.10
2018-06-24T15:59:26.886Z,22.10
2018-06-24T16:01:54.380Z,22.00
2018-06-24T16:04:21.790Z,21.90
2018-06-24T16:06:49.240Z,21.90
2018-06-24T16:09:16.639Z,21.80
2018-06-24T16:11:45.127Z,21.80
2018-06-24T16:14:12.523Z,21.70
2018-06-24T16:16:39.949Z,21.60
2018-06-24T16:19:07.568Z,21.50
2018-06-24T16:21:34.968Z,21.50
2018-06-24T16:24:02.404Z,21.40
2018-06-24T16:26:29.841Z,21.40
2018-06-24T16:28:57.248Z,21.40
2018-06-24T16:31:24.708Z,21.40
2018-06-24T16:36:19.585Z,21.30
2018-06-24T16:38:47.000Z,21.30
2018-06-24T16:41:14.431Z,21.30
2018-06-24T16:43:41.821Z,21.30
2018-06-24T16:46:09.227Z,21.30
2018-06-24T16:48:36.691Z,21.30
2018-06-24T16:51:04.119Z,21.30
2018-06-24T16:53:31.524Z,21.20
2018-06-24T16:55:58.926Z,21.20
2018-06-24T16:58:26.457Z,21.10
2018-06-24T17:00:53.879Z,21.10
2018-06-24T17:03:21.272Z,21.10
2018-06-24T17:05:48.716Z,21.10
2018-06-24T17:08:16.141Z,21.10
2018-06-24T17:10:43.740Z,21.10
2018-06-24T17:13:11.159Z,21.10
2018-06-24T17:15:38.656Z,21.10
2018-06-24T17:18:06.112Z,21.10
2018-06-24T17:20:33.519Z,21.00
2018-06-24T17:23:00.986Z,21.10
2018-06-24T17:27:55.795Z,21.00
2018-06-24T17:32:50.900Z,20.90
2018-06-24T17:35:18.279Z,20.80
2018-06-24T17:37:45.679Z,20.70
2018-06-24T17:42:47.377Z,20.50
2018-06-24T17:45:14.812Z,20.40
2018-06-24T17:47:42.456Z,20.30
2018-06-24T17:50:10.516Z,20.20
2018-06-24T17:52:38.839Z,20.20
2018-06-24T17:55:06.476Z,20.10
2018-06-24T17:57:33.929Z,20.00
2018-06-24T18:00:01.331Z,20.00
2018-06-24T18:02:28.723Z,20.00
2018-06-24T18:04:56.134Z,19.90
2018-06-24T18:07:23.586Z,19.80
2018-06-24T18:09:51.026Z,19.70
2018-06-24T18:12:18.663Z,19.70
2018-06-24T18:14:46.087Z,19.60
2018-06-24T18:17:13.500Z,19.50
2018-06-24T18:19:41.142Z,19.40
2018-06-24T18:22:08.501Z,19.30
2018-06-24T18:24:36.375Z,19.20
2018-06-24T18:27:04.766Z,19.20
2018-06-24T18:29:32.264Z,19.20
2018-06-24T18:31:59.656Z,19.20
2018-06-24T18:34:27.203Z,19.10
2018-06-24T18:36:54.633Z,19.10
2018-06-24T18:39:22.032Z,19.10
2018-06-24T18:41:49.451Z,19.00
2018-06-24T18:44:16.872Z,19.00
2018-06-24T18:46:44.299Z,19.00
2018-06-24T18:49:11.699Z,19.00
2018-06-24T18:54:06.548Z,19.00
2018-06-24T18:56:34.236Z,19.00
2018-06-24T18:59:01.676Z,19.00
2018-06-24T19:01:29.088Z,19.00
2018-06-24T19:06:23.896Z,19.10
2018-06-24T19:08:51.284Z,19.20
2018-06-24T19:11:18.684Z,19.20
2018-06-24T19:13:46.119Z,19.30
2018-06-24T19:16:13.531Z,19.30
2018-06-24T19:18:40.967Z,19.30
2018-06-24T19:21:08.386Z,19.30
2018-06-24T19:23:35.828Z,19.30
2018-06-24T19:26:03.267Z,19.30
2018-06-24T19:28:30.709Z,19.20
2018-06-24T19:30:58.199Z,19.20
2018-06-24T19:33:25.607Z,19.20
2018-06-24T19:35:52.999Z,19.10
2018-06-24T19:38:20.372Z,19.10
2018-06-24T19:40:47.778Z,19.00
2018-06-24T19:43:15.191Z,19.00
2018-06-24T19:45:42.784Z,18.90
2018-06-24T19:48:10.213Z,18.90
2018-06-24T19:50:37.628Z,18.90
2018-06-24T19:53:05.111Z,18.80
2018-06-24T19:55:32.567Z,18.80
2018-06-24T19:57:59.989Z,18.70
2018-06-24T20:02:54.827Z,18.60
2018-06-24T20:05:22.308Z,18.50
2018-06-24T20:07:49.751Z,18.50
2018-06-24T20:10:17.348Z,18.40
2018-06-24T20:12:44.839Z,18.30
2018-06-24T20:15:12.329Z,18.20
2018-06-24T20:17:39.761Z,18.20
2018-06-24T20:20:07.238Z,18.10
2018-06-24T20:22:34.708Z,18.10
2018-06-24T20:25:02.124Z,18.10
2018-06-24T20:27:29.572Z,18.00
2018-06-24T20:29:57.198Z,18.00
2018-06-24T20:32:24.615Z,18.00
2018-06-24T20:34:52.053Z,18.00
2018-06-24T20:37:19.440Z,18.00
2018-06-24T20:39:46.834Z,18.10
2018-06-24T20:42:14.275Z,18.00
2018-06-24T20:44:41.919Z,18.10
2018-06-24T20:47:09.335Z,18.10
2018-06-24T20:49:36.776Z,18.10
2018-06-24T20:52:04.394Z,18.10
2018-06-24T20:54:31.936Z,18.00
2018-06-24T20:56:59.338Z,18.10
2018-06-24T20:59:26.756Z,18.00
2018-06-24T21:01:54.150Z,18.00
2018-06-24T21:04:21.524Z,18.00
2018-06-24T21:06:48.913Z,18.00
2018-06-24T21:09:16.359Z,18.00
2018-06-24T21:11:43.700Z,18.00
2018-06-24T21:14:11.136Z,18.00
2018-06-24T21:16:38.543Z,18.00
2018-06-24T21:19:05.988Z,18.00
2018-06-24T21:21:33.651Z,17.90
2018-06-24T21:24:01.079Z,17.90
2018-06-24T21:26:28.556Z,17.90
2018-06-24T21:28:56.132Z,17.90
2018-06-24T21:31:23.558Z,17.80
2018-06-24T21:33:50.959Z,17.80
2018-06-24T21:36:18.408Z,17.80
2018-06-24T21:38:45.819Z,17.80
2018-06-24T21:41:13.207Z,17.80
2018-06-24T21:43:40.590Z,17.80
2018-06-24T21:46:08.025Z,17.80
2018-06-24T21:48:35.679Z,17.80
2018-06-24T21:51:03.128Z,17.80
2018-06-24T21:53:30.561Z,17.90
2018-06-24T21:55:58.037Z,17.80
2018-06-24T21:58:25.436Z,17.90
2018-06-24T22:00:53.463Z,17.90
2018-06-24T22:03:20.823Z,17.90
2018-06-24T22:05:48.195Z,17.90
2018-06-24T22:08:15.577Z,17.90
2018-06-24T22:10:42.972Z,17.90
2018-06-24T22:13:10.380Z,17.90
2018-06-24T22:15:37.779Z,17.90
2018-06-24T22:18:05.223Z,17.80
2018-06-24T22:20:32.627Z,17.90
2018-06-24T22:23:00.017Z,17.80
2018-06-24T22:25:27.555Z,17.80
2018-06-24T22:27:54.937Z,17.80
2018-06-24T22:30:22.345Z,17.80
2018-06-24T22:32:49.753Z,17.80
2018-06-24T22:35:17.156Z,17.80
2018-06-24T22:37:44.547Z,17.80
2018-06-24T22:40:11.983Z,17.80
2018-06-24T22:42:39.376Z,17.80
2018-06-24T22:45:06.752Z,17.80
2018-06-24T22:47:34.164Z,17.80
2018-06-24T22:50:01.554Z,17.80
2018-06-24T22:52:28.939Z,17.80
2018-06-24T22:54:56.347Z,17.80
2018-06-24T22:57:23.745Z,17.80
2018-06-24T23:00:02.647Z,17.80
2018-06-24T23:02:30.057Z,17.80
2018-06-24T23:04:57.391Z,17.80
2018-06-24T23:07:24.796Z,17.80
2018-06-24T23:09:52.207Z,17.80
2018-06-24T23:12:19.571Z,17.80
2018-06-24T23:14:46.991Z,17.80
2018-06-24T23:17:14.439Z,17.80
2018-06-24T23:19:41.812Z,17.80
2018-06-24T23:22:09.223Z,17.80
2018-06-24T23:24:36.624Z,17.80
2018-06-24T23:27:04.144Z,17.90
2018-06-24T23:29:31.601Z,17.90
2018-06-24T23:31:58.984Z,17.80
2018-06-24T23:34:26.367Z,17.90
2018-06-24T23:36:53.889Z,17.90
2018-06-24T23:39:21.287Z,17.90
2018-06-24T23:41:48.681Z,17.90
2018-06-24T23:44:16.079Z,17.90
2018-06-24T23:46:43.656Z,17.90
2018-06-24T23:49:11.134Z,17.90
2018-06-24T23:51:38.516Z,17.80
2018-06-24T23:54:05.987Z,17.80
2018-06-24T23:56:33.483Z,17.80
2018-06-24T23:59:00.864Z,17.80
